Time;durP1;ratioP1;P1;durP2;ratioP2;P2;SDS_P1;SDS_P2;PMS_P1;PMS_P2;Temp;Humidity;BMP_temperature;BMP_pressure;BME280_temperature;BME280_humidity;BME280_pressure;Samples;Min_cycle;Max_cycle;Signal;HPM_P1;HPM_P2
2021/03/11 00:02:07;;;;;;;57.65;9.10;;;11.80;95.30;;;;;;4976023;28;20035;-78
2021/03/11 00:04:33;;;;;;;60.97;9.27;;;11.80;95.20;;;;;;4977335;28;20492;-78
2021/03/11 00:06:58;;;;;;;63.67;9.10;;;11.80;95.20;;;;;;4977383;28;20047;-78
2021/03/11 00:09:24;;;;;;;51.97;9.25;;;11.90;95.20;;;;;;4976191;28;20042;-78
2021/03/11 00:11:50;;;;;;;54.85;7.78;;;11.90;95.20;;;;;;4977166;28;20039;-78
2021/03/11 00:14:16;;;;;;;50.63;7.18;;;11.90;95.10;;;;;;4975909;28;20045;-78
2021/03/11 00:16:42;;;;;;;66.03;8.13;;;11.90;95.20;;;;;;4977502;28;20039;-78
2021/03/11 00:19:08;;;;;;;58.15;8.25;;;11.90;95.20;;;;;;4976869;28;20097;-78
2021/03/11 00:21:34;;;;;;;57.83;7.80;;;11.80;95.10;;;;;;4976751;28;20117;-78
2021/03/11 00:24:00;;;;;;;57.08;9.80;;;11.90;95.20;;;;;;4975914;28;20043;-78
2021/03/11 00:26:25;;;;;;;54.88;8.43;;;11.90;95.10;;;;;;4975954;28;20046;-78
2021/03/11 00:28:51;;;;;;;60.90;8.55;;;11.90;95.10;;;;;;4976846;28;20045;-78
2021/03/11 00:31:17;;;;;;;58.70;6.85;;;11.90;95.20;;;;;;4975746;28;20493;-78
2021/03/11 00:33:43;;;;;;;58.63;8.77;;;11.90;95.20;;;;;;4975342;28;20101;-78
2021/03/11 00:36:09;;;;;;;52.05;8.50;;;11.90;95.10;;;;;;4975807;28;20392;-78
2021/03/11 00:38:35;;;;;;;57.20;8.80;;;11.90;95.10;;;;;;4977010;28;20523;-78
2021/03/11 00:41:00;;;;;;;58.45;8.95;;;11.90;95.00;;;;;;4976929;28;20039;-78
2021/03/11 00:43:26;;;;;;;51.03;8.73;;;11.90;94.90;;;;;;4976832;28;20508;-78
2021/03/11 00:45:52;;;;;;;60.75;7.55;;;11.90;95.00;;;;;;4975833;28;20038;-77
2021/03/11 00:48:18;;;;;;;61.33;7.88;;;11.90;95.00;;;;;;4975117;28;20508;-78
2021/03/11 00:50:44;;;;;;;65.20;10.02;;;11.90;95.20;;;;;;4977035;28;20155;-78
2021/03/11 00:53:09;;;;;;;67.57;7.25;;;11.80;95.10;;;;;;4975179;28;20496;-78
2021/03/11 00:55:35;;;;;;;58.60;7.85;;;11.90;95.10;;;;;;4976416;28;20050;-78
2021/03/11 00:58:01;;;;;;;54.10;7.07;;;11.90;95.10;;;;;;4976780;28;20118;-78
2021/03/11 01:00:27;;;;;;;45.25;7.00;;;11.90;95.20;;;;;;4976328;28;20042;-78
2021/03/11 01:02:53;;;;;;;56.30;8.07;;;11.90;95.20;;;;;;4975285;28;20370;-78
2021/03/11 01:05:28;;;;;;;50.78;6.45;;;11.90;95.30;;;;;;4976500;28;20134;-78
2021/03/11 01:07:54;;;;;;;53.88;8.15;;;11.90;95.20;;;;;;4976407;28;20058;-78
2021/03/11 01:10:20;;;;;;;55.30;7.38;;;11.90;95.30;;;;;;4975158;28;20035;-78
2021/03/11 01:12:46;;;;;;;61.65;7.90;;;11.90;95.20;;;;;;4976144;28;20070;-78
2021/03/11 01:15:12;;;;;;;53.90;7.55;;;11.90;95.20;;;;;;4975238;28;20042;-78
2021/03/11 01:17:38;;;;;;;54.53;6.95;;;11.90;95.20;;;;;;4976524;28;20074;-78
2021/03/11 01:20:13;;;;;;;65.00;8.00;;;11.90;95.10;;;;;;4975921;28;20508;-79
2021/03/11 01:22:39;;;;;;;67.40;9.05;;;11.90;95.10;;;;;;4976692;28;20042;-78
2021/03/11 01:25:06;;;;;;;44.58;6.43;;;11.90;95.10;;;;;;4976076;28;20046;-78
2021/03/11 01:27:32;;;;;;;49.88;7.45;;;11.90;95.00;;;;;;4976238;28;20073;-78
2021/03/11 01:29:59;;;;;;;36.72;6.18;;;12.00;94.90;;;;;;4976187;28;20030;-78
2021/03/11 01:32:25;;;;;;;51.03;8.43;;;12.00;94.80;;;;;;4974034;28;20120;-78
2021/03/11 01:34:51;;;;;;;63.65;7.72;;;12.00;95.00;;;;;;4974883;28;20488;-78
2021/03/11 01:37:17;;;;;;;45.70;7.47;;;12.00;94.70;;;;;;4976519;28;20102;-79
2021/03/11 01:39:42;;;;;;;55.72;6.93;;;12.00;94.70;;;;;;4974970;28;20507;-78
2021/03/11 01:42:08;;;;;;;50.20;7.57;;;12.10;94.60;;;;;;4975337;28;20422;-78
2021/03/11 01:44:34;;;;;;;54.13;8.05;;;12.10;94.80;;;;;;4975104;28;20038;-78
2021/03/11 01:47:00;;;;;;;47.67;6.53;;;12.10;94.50;;;;;;4976278;28;20543;-78
2021/03/11 01:49:26;;;;;;;51.55;8.10;;;12.10;94.50;;;;;;4974521;28;20498;-78
2021/03/11 01:51:53;;;;;;;48.15;6.55;;;12.10;94.50;;;;;;4974936;28;20030;-78
2021/03/11 01:54:19;;;;;;;58.38;7.85;;;12.10;94.40;;;;;;4975996;28;20039;-78
2021/03/11 01:56:46;;;;;;;43.05;6.07;;;12.10;94.40;;;;;;4976270;28;20618;-78
2021/03/11 01:59:13;;;;;;;46.47;7.00;;;12.10;94.40;;;;;;4974879;28;20038;-78
2021/03/11 02:01:40;;;;;;;65.55;7.47;;;12.10;94.40;;;;;;4974926;28;20049;-78
2021/03/11 02:04:06;;;;;;;55.70;7.95;;;12.10;94.40;;;;;;4990903;28;20077;-78
2021/03/11 02:06:32;;;;;;;49.53;7.35;;;12.10;94.40;;;;;;4975733;28;20043;-78
2021/03/11 02:08:58;;;;;;;43.90;6.45;;;12.10;94.40;;;;;;4975863;28;20035;-78
2021/03/11 02:11:26;;;;;;;49.83;7.38;;;12.10;94.30;;;;;;4976123;28;20510;-78
2021/03/11 02:14:22;;;;;;;56.13;7.43;;;12.10;94.40;;;;;;4974436;28;20035;-78
2021/03/11 02:16:57;;;;;;;40.70;6.80;;;12.10;94.30;;;;;;4984432;28;20500;-79
2021/03/11 02:19:48;;;;;;;59.30;7.38;;;12.10;94.30;;;;;;4975622;28;20071;-79
2021/03/11 02:22:49;;;;;;;54.20;7.40;;;12.20;94.30;;;;;;4973631;28;20058;-79
2021/03/11 02:25:33;;;;;;;55.70;7.95;;;12.10;94.30;;;;;;4973893;28;20409;-79
2021/03/11 02:28:20;;;;;;;47.53;7.50;;;12.10;94.30;;;;;;4974443;28;20076;-78
2021/03/11 02:30:47;;;;;;;65.55;8.32;;;12.10;94.30;;;;;;4973936;28;20059;-78
2021/03/11 02:33:13;;;;;;;59.72;7.22;;;12.10;94.30;;;;;;4975172;28;20046;-79
2021/03/11 02:35:41;;;;;;;66.80;8.77;;;12.10;94.40;;;;;;4975263;28;20031;-78
2021/03/11 02:38:10;;;;;;;55.95;8.80;;;12.10;94.30;;;;;;4975250;28;20042;-78
2021/03/11 02:40:37;;;;;;;55.13;7.25;;;12.10;94.40;;;;;;4974031;28;20043;-78
2021/03/11 02:43:05;;;;;;;55.95;7.75;;;12.10;94.40;;;;;;4975521;28;20039;-78
2021/03/11 02:45:33;;;;;;;51.00;7.65;;;12.10;94.40;;;;;;4977592;28;20500;-78
2021/03/11 02:48:06;;;;;;;51.03;8.35;;;12.10;94.40;;;;;;4978554;28;20047;-78
2021/03/11 02:50:34;;;;;;;63.15;8.55;;;12.10;94.30;;;;;;4978710;28;20500;-79
2021/03/11 02:53:02;;;;;;;68.03;7.90;;;12.10;94.30;;;;;;4994959;28;20049;-78
2021/03/11 02:55:30;;;;;;;58.78;7.38;;;12.10;94.30;;;;;;4979402;28;20201;-79
2021/03/11 02:57:58;;;;;;;46.97;7.55;;;12.10;94.20;;;;;;4979716;28;20043;-79
2021/03/11 03:00:25;;;;;;;65.43;8.70;;;12.10;94.30;;;;;;4980912;28;20038;-79
2021/03/11 03:02:53;;;;;;;54.97;8.27;;;12.10;94.20;;;;;;4980991;28;20042;-78
2021/03/11 03:05:21;;;;;;;68.55;8.15;;;12.10;94.20;;;;;;4980994;28;20495;-79
2021/03/11 03:07:48;;;;;;;54.05;8.18;;;12.10;94.20;;;;;;4982383;28;20035;-78
2021/03/11 03:10:29;;;;;;;61.58;7.75;;;12.10;94.30;;;;;;4978565;28;20038;-78
2021/03/11 03:13:00;;;;;;;64.63;9.13;;;12.10;94.20;;;;;;4976895;28;20034;-78
2021/03/11 03:15:26;;;;;;;65.43;9.18;;;12.10;94.20;;;;;;4977060;28;20035;-78
2021/03/11 03:17:53;;;;;;;66.60;8.98;;;12.10;94.20;;;;;;4978372;28;20472;-78
2021/03/11 03:20:21;;;;;;;69.80;9.43;;;12.10;94.20;;;;;;4976926;28;20101;-78
2021/03/11 03:22:48;;;;;;;77.10;9.65;;;12.10;94.10;;;;;;4978939;28;20054;-78
2021/03/11 03:25:18;;;;;;;63.92;8.02;;;12.00;94.10;;;;;;4978363;28;20064;-78
2021/03/11 03:27:44;;;;;;;72.68;8.70;;;12.10;94.20;;;;;;4978491;28;20042;-78
2021/03/11 03:30:18;;;;;;;73.00;9.93;;;12.10;94.20;;;;;;4977138;28;20503;-78
2021/03/11 03:32:45;;;;;;;58.75;7.93;;;12.00;94.10;;;;;;4978397;28;20034;-78
2021/03/11 03:35:15;;;;;;;67.25;9.07;;;12.00;94.20;;;;;;4978726;28;20027;-78
2021/03/11 03:37:41;;;;;;;71.50;8.23;;;12.10;94.20;;;;;;4976599;28;20046;-78
2021/03/11 03:40:12;;;;;;;68.93;9.25;;;12.10;94.40;;;;;;4978295;28;20125;-78
2021/03/11 03:42:46;;;;;;;64.50;8.85;;;12.10;94.10;;;;;;4977368;28;20065;-78
2021/03/11 03:45:19;;;;;;;62.28;8.38;;;12.10;94.30;;;;;;4978350;28;20043;-78
2021/03/11 03:47:45;;;;;;;69.55;8.63;;;12.10;94.40;;;;;;4976555;28;20039;-78
2021/03/11 03:50:13;;;;;;;79.63;8.70;;;12.10;94.60;;;;;;4978576;28;20030;-78
2021/03/11 03:52:40;;;;;;;64.60;8.90;;;12.00;94.40;;;;;;4976878;28;20039;-78
2021/03/11 03:55:09;;;;;;;70.47;9.23;;;12.00;94.40;;;;;;4976136;28;20037;-78
2021/03/11 03:57:36;;;;;;;61.65;8.18;;;12.00;94.40;;;;;;4978390;28;20038;-78
2021/03/11 04:00:07;;;;;;;83.35;10.55;;;12.00;94.50;;;;;;4977758;28;20041;-79
2021/03/11 04:02:35;;;;;;;74.93;8.43;;;12.10;94.60;;;;;;4976990;28;20073;-78
2021/03/11 04:05:02;;;;;;;83.50;10.23;;;12.00;94.40;;;;;;4977689;28;20049;-78
2021/03/11 04:07:30;;;;;;;75.30;9.32;;;12.10;94.30;;;;;;4978083;28;20055;-78
2021/03/11 04:09:57;;;;;;;61.10;8.60;;;12.10;94.20;;;;;;4977962;28;20515;-79
2021/03/11 04:12:24;;;;;;;77.10;9.63;;;12.10;94.20;;;;;;4977609;28;20042;-79
2021/03/11 04:14:51;;;;;;;69.75;8.93;;;12.10;94.20;;;;;;4976180;28;20030;-79
2021/03/11 04:17:17;;;;;;;70.07;9.15;;;12.10;94.20;;;;;;4975848;28;20042;-79
2021/03/11 04:19:44;;;;;;;71.05;10.27;;;12.10;94.30;;;;;;4977744;28;20631;-79
2021/03/11 04:22:10;;;;;;;79.80;10.23;;;12.10;94.20;;;;;;4977276;28;20193;-79
2021/03/11 04:24:37;;;;;;;63.95;9.00;;;12.10;94.30;;;;;;4976036;28;20484;-78
2021/03/11 04:27:05;;;;;;;74.28;11.70;;;12.00;94.40;;;;;;4977109;28;20034;-79
2021/03/11 04:29:32;;;;;;;70.90;10.27;;;12.10;94.40;;;;;;4975627;28;20034;-79
2021/03/11 04:31:59;;;;;;;80.05;10.25;;;12.00;94.40;;;;;;4975992;28;20047;-78
2021/03/11 04:34:26;;;;;;;76.43;9.75;;;12.00;94.40;;;;;;4976847;28;20043;-78
2021/03/11 04:36:53;;;;;;;74.40;9.50;;;12.00;94.50;;;;;;4975799;28;20038;-78
2021/03/11 04:39:21;;;;;;;75.45;9.65;;;12.00;94.70;;;;;;4977206;28;20042;-78
2021/03/11 04:41:49;;;;;;;81.63;12.30;;;12.00;94.70;;;;;;4977338;28;20047;-78
2021/03/11 04:44:16;;;;;;;85.43;9.90;;;12.00;94.70;;;;;;4991864;28;20046;-78
2021/03/11 04:46:41;;;;;;;67.65;10.50;;;12.00;94.80;;;;;;4976581;28;20054;-78
2021/03/11 04:49:09;;;;;;;68.22;10.07;;;12.00;94.80;;;;;;4974832;28;20035;-79
2021/03/11 04:51:37;;;;;;;83.95;10.60;;;12.00;94.70;;;;;;4975333;28;20596;-78
2021/03/11 04:54:03;;;;;;;82.45;10.73;;;12.00;94.70;;;;;;4976477;28;20037;-78
2021/03/11 04:56:29;;;;;;;77.85;10.93;;;12.00;94.60;;;;;;4976608;28;20039;-78
2021/03/11 04:58:55;;;;;;;75.43;11.07;;;12.00;94.60;;;;;;4974873;28;20037;-78
2021/03/11 05:01:24;;;;;;;69.20;8.93;;;12.00;94.70;;;;;;4976460;28;20047;-78
2021/03/11 05:03:52;;;;;;;83.85;10.65;;;12.10;94.70;;;;;;4974872;28;20030;-78
2021/03/11 05:06:18;;;;;;;68.43;8.93;;;12.10;94.60;;;;;;4976372;28;20042;-78
2021/03/11 05:08:44;;;;;;;92.07;11.85;;;12.00;94.60;;;;;;4976213;28;20060;-78
2021/03/11 05:11:14;;;;;;;84.88;12.43;;;12.00;94.50;;;;;;4976641;28;20047;-78
2021/03/11 05:13:43;;;;;;;71.65;9.57;;;12.00;94.50;;;;;;4976258;28;20127;-78
2021/03/11 05:16:09;;;;;;;77.38;10.23;;;12.00;94.60;;;;;;4976404;28;20105;-78
2021/03/11 05:18:35;;;;;;;77.70;9.32;;;12.00;94.70;;;;;;4976350;28;20162;-78
2021/03/11 05:21:02;;;;;;;82.28;10.50;;;12.00;94.90;;;;;;4976374;28;20053;-78
2021/03/11 05:23:28;;;;;;;76.93;9.60;;;12.00;94.90;;;;;;4976255;28;20453;-78
2021/03/11 05:25:54;;;;;;;97.55;11.63;;;12.00;94.80;;;;;;4976255;28;20049;-77
2021/03/11 05:28:21;;;;;;;70.25;9.63;;;11.90;94.60;;;;;;4976562;28;20046;-78
2021/03/11 05:30:47;;;;;;;80.22;10.73;;;12.00;94.50;;;;;;4976330;28;20038;-78
2021/03/11 05:33:13;;;;;;;73.40;10.68;;;12.00;94.50;;;;;;4975156;28;20484;-77
2021/03/11 05:35:39;;;;;;;77.00;10.43;;;12.10;94.50;;;;;;4977531;28;20089;-78
2021/03/11 05:38:06;;;;;;;77.75;11.27;;;12.10;94.10;;;;;;4976445;28;20361;-78
2021/03/11 05:40:32;;;;;;;75.30;10.18;;;12.10;94.30;;;;;;4976059;28;20043;-77
2021/03/11 05:43:01;;;;;;;88.97;11.10;;;12.10;94.40;;;;;;4976269;28;20073;-78
2021/03/11 05:45:28;;;;;;;66.93;9.07;;;12.00;94.50;;;;;;4976303;28;20043;-78
2021/03/11 05:47:55;;;;;;;73.28;9.35;;;12.00;94.40;;;;;;4974491;28;20039;-77
2021/03/11 05:50:22;;;;;;;83.07;10.05;;;12.10;94.40;;;;;;4975976;28;20042;-78
2021/03/11 05:52:48;;;;;;;72.60;10.50;;;12.00;94.30;;;;;;4976233;28;20050;-78
2021/03/11 05:55:14;;;;;;;71.70;9.80;;;12.10;94.30;;;;;;4975937;28;20050;-78
2021/03/11 05:57:44;;;;;;;69.22;10.90;;;12.10;94.30;;;;;;4976165;28;20055;-78
2021/03/11 06:00:15;;;;;;;71.38;9.77;;;12.10;94.30;;;;;;4976619;28;20085;-78
2021/03/11 06:02:46;;;;;;;70.07;10.23;;;12.10;94.20;;;;;;4976263;28;20046;-79
2021/03/11 06:05:15;;;;;;;73.72;10.38;;;12.10;94.20;;;;;;4975817;28;20125;-78
2021/03/11 06:07:45;;;;;;;70.30;9.63;;;12.10;94.20;;;;;;4975792;28;20046;-77
2021/03/11 06:10:14;;;;;;;69.85;10.05;;;12.10;94.20;;;;;;4992765;28;20068;-79
2021/03/11 06:12:41;;;;;;;78.82;13.20;;;12.10;94.20;;;;;;4981438;28;20101;-79
2021/03/11 06:15:35;;;;;;;91.00;10.23;;;12.10;94.30;;;;;;4974762;28;20045;-80
2021/03/11 06:18:05;;;;;;;72.10;9.88;;;12.10;94.30;;;;;;4975001;28;20042;-79
2021/03/11 06:20:31;;;;;;;76.40;10.02;;;12.10;94.30;;;;;;4978256;28;20065;-79
2021/03/11 06:22:57;;;;;;;83.90;10.70;;;12.10;94.40;;;;;;4979805;28;20039;-79
2021/03/11 06:25:24;;;;;;;64.40;10.55;;;12.10;94.50;;;;;;4979522;28;20101;-79
2021/03/11 06:27:50;;;;;;;67.70;10.20;;;12.00;94.50;;;;;;4978885;28;20046;-78
2021/03/11 06:30:36;;;;;;;85.70;10.57;;;12.00;94.50;;;;;;4994401;28;20034;-77
2021/03/11 06:33:04;;;;;;;63.85;9.30;;;12.00;94.60;;;;;;4980744;28;20500;-76
2021/03/11 06:35:30;;;;;;;72.90;9.50;;;12.00;94.50;;;;;;4977855;28;20046;-78
2021/03/11 06:37:56;;;;;;;66.70;10.98;;;12.00;94.60;;;;;;4978879;28;20112;-78
2021/03/11 06:40:25;;;;;;;73.25;10.25;;;12.00;94.60;;;;;;4978066;28;20479;-79
2021/03/11 06:42:52;;;;;;;66.95;9.07;;;12.00;94.60;;;;;;4978027;28;20038;-79
2021/03/11 06:45:26;;;;;;;71.05;9.00;;;12.00;94.70;;;;;;4979848;28;20261;-79
2021/03/11 06:48:25;;;;;;;69.03;8.65;;;12.00;94.80;;;;;;4978657;28;20043;-79
2021/03/11 06:50:59;;;;;;;74.65;12.43;;;12.00;95.00;;;;;;4981161;28;20034;-80
2021/03/11 06:53:25;;;;;;;84.50;10.67;;;11.90;95.20;;;;;;4979155;28;20465;-78
2021/03/11 06:55:51;;;;;;;84.18;11.23;;;11.90;95.50;;;;;;4979704;28;20266;-80
2021/03/11 06:58:19;;;;;;;81.95;11.25;;;11.90;95.60;;;;;;4983970;28;20048;-78
2021/03/11 07:00:46;;;;;;;93.82;11.85;;;11.90;95.90;;;;;;4979154;28;20038;-78
2021/03/11 07:03:13;;;;;;;92.10;11.98;;;11.80;96.10;;;;;;4978582;28;20045;-78
2021/03/11 07:05:43;;;;;;;81.20;10.45;;;11.80;96.20;;;;;;4978344;28;20105;-78
2021/03/11 07:08:16;;;;;;;105.82;10.82;;;11.80;96.40;;;;;;4978694;28;20053;-78
2021/03/11 07:10:44;;;;;;;83.18;11.75;;;11.80;96.40;;;;;;4979009;28;20093;-78
2021/03/11 07:13:09;;;;;;;90.82;12.38;;;11.80;96.60;;;;;;4978725;28;20098;-77
2021/03/11 07:15:37;;;;;;;88.72;10.57;;;11.80;96.60;;;;;;4977842;28;20038;-77
2021/03/11 07:18:19;;;;;;;91.97;10.85;;;11.80;96.70;;;;;;4978249;28;20042;-77
2021/03/11 07:20:45;;;;;;;89.68;11.80;;;11.80;96.90;;;;;;4978616;28;20058;-81
2021/03/11 07:23:14;;;;;;;89.53;11.60;;;11.80;96.90;;;;;;4976793;28;20567;-81
2021/03/11 07:25:45;;;;;;;80.30;11.88;;;11.80;97.00;;;;;;4993101;28;20042;-82
2021/03/11 07:28:25;;;;;;;97.05;12.02;;;11.80;97.00;;;;;;4976749;28;20042;-81
2021/03/11 07:30:55;;;;;;;90.80;12.00;;;11.80;97.00;;;;;;4975751;28;20031;-78
2021/03/11 07:33:29;;;;;;;103.85;13.20;;;11.80;97.10;;;;;;4977720;28;20042;-79
2021/03/11 07:35:57;;;;;;;65.27;9.53;;;11.80;97.10;;;;;;4978194;28;20496;-77
2021/03/11 07:38:24;;;;;;;38.33;7.28;;;11.90;97.20;;;;;;4976286;28;20791;-77
2021/03/11 07:40:55;;;;;;;30.17;5.88;;;11.90;96.80;;;;;;4978107;28;20047;-79
2021/03/11 07:43:22;;;;;;;27.63;4.93;;;11.90;96.50;;;;;;4977189;28;20193;-82
2021/03/11 07:45:49;;;;;;;20.10;4.00;;;11.90;96.00;;;;;;5012057;28;20046;-78
2021/03/11 07:48:15;;;;;;;17.55;3.80;;;11.80;96.00;;;;;;4971550;28;20039;-79
2021/03/11 07:50:43;;;;;;;21.85;5.18;;;11.80;95.90;;;;;;4991408;28;20039;-79
2021/03/11 07:53:09;;;;;;;20.52;5.82;;;11.70;96.00;;;;;;4976327;28;20423;-79
2021/03/11 07:55:36;;;;;;;31.13;6.95;;;11.70;96.10;;;;;;4991013;28;20042;-79
2021/03/11 07:58:05;;;;;;;25.85;4.75;;;11.70;96.20;;;;;;4976968;28;20134;-78
2021/03/11 08:00:32;;;;;;;36.30;5.25;;;11.70;96.10;;;;;;4991780;28;20042;-79
2021/03/11 08:03:22;;;;;;;24.67;4.85;;;11.60;96.10;;;;;;4991423;28;20043;-79
2021/03/11 08:05:48;;;;;;;21.75;5.13;;;11.70;96.30;;;;;;4976861;28;20039;-79
2021/03/11 08:08:20;;;;;;;19.45;3.55;;;11.60;96.20;;;;;;4991028;28;20415;-79
2021/03/11 08:10:48;;;;;;;25.38;4.05;;;11.60;96.20;;;;;;4976571;28;20121;-78
2021/03/11 08:13:44;;;;;;;28.58;4.63;;;11.70;96.10;;;;;;4976022;28;20399;-79
2021/03/11 08:16:13;;;;;;;42.13;4.30;;;11.60;96.10;;;;;;4976503;28;20046;-78
2021/03/11 08:18:40;;;;;;;30.33;4.32;;;11.60;96.10;;;;;;4976010;28;20050;-79
2021/03/11 08:21:24;;;;;;;38.92;8.40;;;11.60;96.10;;;;;;4991160;28;20058;-81
2021/03/11 08:23:54;;;;;;;44.08;4.95;;;11.50;95.90;;;;;;4991032;28;20046;-82
2021/03/11 08:26:38;;;;;;;32.35;4.78;;;11.50;95.80;;;;;;4991175;28;20073;-78
2021/03/11 08:29:19;;;;;;;44.85;4.47;;;11.50;95.70;;;;;;4957166;28;20035;-77
2021/03/11 08:31:46;;;;;;;34.88;4.55;;;11.50;95.80;;;;;;4971285;28;20047;-77
2021/03/11 08:34:37;;;;;;;32.45;4.68;;;11.50;95.70;;;;;;4956133;29;20042;-77
2021/03/11 08:37:14;;;;;;;52.60;6.68;;;11.50;95.90;;;;;;4955671;28;20481;-77
2021/03/11 08:39:40;;;;;;;54.28;6.22;;;11.50;95.90;;;;;;4971706;28;20035;-77
2021/03/11 08:42:46;;;;;;;49.65;5.07;;;11.50;95.90;;;;;;4955183;28;20445;-77
2021/03/11 08:45:13;;;;;;;46.63;4.25;;;11.50;96.10;;;;;;4955845;29;20039;-78
2021/03/11 08:48:12;;;;;;;32.92;3.88;;;11.50;96.10;;;;;;4979594;28;20050;-83
2021/03/11 08:50:39;;;;;;;36.63;4.22;;;11.50;96.10;;;;;;4972046;28;20035;-79
2021/03/11 08:53:05;;;;;;;53.03;5.47;;;11.50;96.00;;;;;;4975778;28;20514;-78
2021/03/11 08:55:41;;;;;;;42.53;5.15;;;11.50;96.00;;;;;;4975354;28;20031;-79
2021/03/11 08:58:49;;;;;;;50.03;6.05;;;11.50;96.00;;;;;;4990187;28;20042;-79
2021/03/11 09:01:34;;;;;;;40.97;4.85;;;11.50;96.00;;;;;;4967995;28;20043;-83
2021/03/11 09:04:01;;;;;;;43.65;5.20;;;11.60;96.10;;;;;;4973686;28;20070;-78
2021/03/11 09:07:00;;;;;;;42.35;5.57;;;11.60;96.10;;;;;;4975579;28;20070;-78
2021/03/11 09:09:46;;;;;;;50.75;4.97;;;11.60;96.10;;;;;;4949017;28;20035;-78
2021/03/11 09:12:33;;;;;;;39.92;4.70;;;11.60;96.10;;;;;;4975506;28;20170;-79
2021/03/11 09:15:01;;;;;;;44.65;4.35;;;11.60;96.20;;;;;;4974985;28;20050;-78
2021/03/11 09:17:32;;;;;;;53.20;5.05;;;11.50;96.10;;;;;;4975360;28;20086;-76
2021/03/11 09:20:11;;;;;;;40.30;5.65;;;11.50;96.20;;;;;;4973599;28;20408;-76
2021/03/11 09:22:46;;;;;;;68.13;7.85;;;11.40;96.30;;;;;;4973831;28;20058;-79
2021/03/11 09:25:15;;;;;;;59.53;8.68;;;11.40;96.40;;;;;;4975024;28;20049;-76
2021/03/11 09:27:52;;;;;;;48.42;6.55;;;11.40;96.50;;;;;;4989968;28;20047;-79
2021/03/11 09:30:23;;;;;;;44.85;7.65;;;11.50;96.50;;;;;;4974704;28;20030;-77
2021/03/11 09:32:52;;;;;;;49.78;5.50;;;11.50;96.30;;;;;;4989719;28;20039;-80
2021/03/11 09:35:19;;;;;;;51.50;6.30;;;11.60;96.30;;;;;;4989676;28;20134;-81
2021/03/11 09:37:59;;;;;;;47.90;5.72;;;11.70;96.20;;;;;;4975211;28;20042;-82
2021/03/11 09:40:35;;;;;;;52.88;6.93;;;11.80;95.90;;;;;;4990289;28;20035;-81
2021/03/11 09:43:11;;;;;;;56.17;7.80;;;11.80;95.80;;;;;;4990275;28;20046;-79
2021/03/11 09:45:38;;;;;;;72.13;6.85;;;11.80;95.60;;;;;;4989611;28;20042;-79
2021/03/11 09:48:10;;;;;;;61.10;8.40;;;11.80;95.50;;;;;;4989329;28;20039;-79
2021/03/11 09:50:37;;;;;;;56.63;7.07;;;11.80;95.40;;;;;;4974712;28;20085;-78
2021/03/11 09:53:06;;;;;;;58.30;7.38;;;11.80;95.40;;;;;;4973949;28;20023;-86
2021/03/11 09:55:33;;;;;;;52.47;6.75;;;11.90;95.30;;;;;;4974670;28;20046;-79
2021/03/11 09:57:59;;;;;;;62.10;7.32;;;11.90;95.10;;;;;;4974366;28;20046;-81
2021/03/11 10:00:25;;;;;;;52.20;6.40;;;11.90;94.90;;;;;;4989588;28;20488;-78
2021/03/11 10:02:59;;;;;;;52.45;7.63;;;11.90;94.60;;;;;;4989595;28;20061;-79
2021/03/11 10:05:32;;;;;;;48.47;6.07;;;11.80;94.30;;;;;;4987993;28;20054;-79
2021/03/11 10:07:58;;;;;;;61.97;7.88;;;11.80;94.10;;;;;;4974397;28;20097;-79
2021/03/11 10:10:25;;;;;;;64.13;8.15;;;11.80;94.20;;;;;;4974713;28;20038;-79
2021/03/11 10:12:51;;;;;;;59.92;7.25;;;11.80;94.20;;;;;;4973853;28;20571;-77
2021/03/11 10:15:18;;;;;;;53.33;6.93;;;11.80;94.10;;;;;;4988940;28;20034;-77
2021/03/11 10:17:45;;;;;;;47.35;7.22;;;11.80;94.30;;;;;;4989246;28;20042;-77
2021/03/11 10:20:22;;;;;;;44.58;7.57;;;11.90;94.30;;;;;;4989551;28;20051;-76
2021/03/11 10:22:49;;;;;;;51.15;6.10;;;12.00;94.20;;;;;;4974112;28;20081;-78
2021/03/11 10:25:16;;;;;;;54.55;7.30;;;12.00;93.90;;;;;;4972821;28;20096;-78
2021/03/11 10:27:45;;;;;;;48.00;6.40;;;12.10;94.00;;;;;;4974521;28;20162;-78
2021/03/11 10:30:20;;;;;;;53.08;8.65;;;12.10;93.60;;;;;;4974675;28;20038;-77
2021/03/11 10:33:04;;;;;;;59.58;7.43;;;12.10;93.60;;;;;;4974425;28;20483;-78
2021/03/11 10:35:35;;;;;;;42.78;6.40;;;12.10;93.10;;;;;;4974067;28;20050;-78
2021/03/11 10:38:17;;;;;;;50.13;7.32;;;12.20;92.70;;;;;;4974008;28;20122;-77
2021/03/11 10:40:44;;;;;;;48.53;6.15;;;12.10;92.50;;;;;;4974816;28;20104;-83
2021/03/11 10:43:20;;;;;;;50.45;7.60;;;12.10;92.50;;;;;;4973236;28;20046;-83
2021/03/11 10:45:46;;;;;;;58.28;8.57;;;12.10;92.50;;;;;;4974436;28;20045;-83
2021/03/11 10:48:13;;;;;;;49.67;6.68;;;12.00;92.50;;;;;;4973654;28;20038;-83
2021/03/11 10:50:40;;;;;;;62.33;7.45;;;12.10;92.50;;;;;;4989581;28;20134;-81
2021/03/11 10:53:06;;;;;;;58.25;9.15;;;12.20;92.60;;;;;;4974465;28;20387;-82
2021/03/11 10:55:38;;;;;;;57.42;7.88;;;12.30;92.40;;;;;;4974392;28;20047;-80
2021/03/11 10:58:05;;;;;;;44.72;6.10;;;12.30;92.40;;;;;;4974261;28;20050;-80
2021/03/11 11:00:35;;;;;;;46.95;6.15;;;12.40;92.40;;;;;;4973388;28;20504;-80
2021/03/11 11:03:03;;;;;;;39.58;5.80;;;12.40;92.40;;;;;;4973609;28;20047;-80
2021/03/11 11:05:30;;;;;;;43.08;8.15;;;12.50;92.20;;;;;;4976961;28;20050;-79
2021/03/11 11:07:56;;;;;;;39.38;7.47;;;12.50;92.20;;;;;;4992101;28;20149;-79
2021/03/11 11:10:27;;;;;;;41.30;5.45;;;12.40;92.30;;;;;;4977635;28;20122;-79
2021/03/11 11:12:52;;;;;;;49.30;6.50;;;12.40;92.50;;;;;;4976491;28;20038;-79
2021/03/11 11:15:19;;;;;;;61.25;8.20;;;12.30;92.60;;;;;;4976922;28;20101;-80
2021/03/11 11:17:45;;;;;;;70.35;14.98;;;12.30;92.70;;;;;;4977275;28;20038;-80
2021/03/11 11:20:14;;;;;;;51.85;6.88;;;12.40;92.50;;;;;;4976841;28;20039;-80
2021/03/11 11:22:40;;;;;;;47.90;6.40;;;12.50;92.30;;;;;;4978444;28;20134;-80
2021/03/11 11:25:07;;;;;;;39.50;6.20;;;12.50;92.00;;;;;;4981642;28;20369;-80
2021/03/11 11:27:35;;;;;;;53.45;9.30;;;12.50;92.00;;;;;;4981259;28;20054;-80
2021/03/11 11:30:02;;;;;;;50.55;6.78;;;12.50;91.90;;;;;;4979006;28;20038;-80
2021/03/11 11:32:28;;;;;;;40.50;5.75;;;12.60;91.70;;;;;;4977172;28;20122;-79
2021/03/11 11:34:54;;;;;;;49.00;6.80;;;12.70;91.30;;;;;;4977417;28;20046;-80
2021/03/11 11:37:20;;;;;;;55.45;6.45;;;12.80;91.20;;;;;;4977450;28;20038;-79
2021/03/11 11:39:47;;;;;;;45.15;8.07;;;12.80;91.10;;;;;;4976102;28;20054;-79
2021/03/11 11:42:13;;;;;;;47.55;7.20;;;12.90;90.70;;;;;;4977177;28;20070;-79
2021/03/11 11:44:40;;;;;;;42.25;6.30;;;12.90;90.80;;;;;;4977069;28;20105;-79
2021/03/11 11:47:07;;;;;;;52.33;7.68;;;13.00;90.30;;;;;;4976998;28;20462;-79
2021/03/11 11:49:33;;;;;;;44.80;5.95;;;13.00;90.60;;;;;;4976357;28;20042;-79
2021/03/11 11:51:59;;;;;;;48.75;7.57;;;13.00;90.30;;;;;;4974292;28;20381;-78
2021/03/11 11:54:26;;;;;;;46.70;6.38;;;12.90;90.20;;;;;;4976046;28;20034;-76
2021/03/11 11:56:52;;;;;;;54.08;7.38;;;12.90;90.00;;;;;;4975956;28;20042;-79
2021/03/11 11:59:19;;;;;;;52.63;8.63;;;12.90;90.00;;;;;;4975965;28;20492;-85
2021/03/11 12:01:45;;;;;;;44.42;7.38;;;12.80;89.90;;;;;;4990716;28;20100;-79
2021/03/11 12:04:11;;;;;;;57.50;7.80;;;12.80;89.90;;;;;;4976570;28;20035;-81
2021/03/11 12:06:38;;;;;;;57.35;6.72;;;12.80;89.60;;;;;;4976157;28;20035;-77
2021/03/11 12:09:05;;;;;;;51.50;8.30;;;12.80;89.20;;;;;;4976399;28;20439;-77
2021/03/11 12:11:31;;;;;;;50.92;7.28;;;13.00;88.60;;;;;;4976645;28;20566;-76
2021/03/11 12:13:56;;;;;;;56.90;6.70;;;13.00;88.00;;;;;;4975400;28;20078;-77
2021/03/11 12:16:22;;;;;;;50.55;7.78;;;13.10;87.50;;;;;;4975478;28;20031;-78
2021/03/11 12:18:48;;;;;;;62.13;9.30;;;13.10;87.70;;;;;;4976722;28;20504;-78
2021/03/11 12:21:14;;;;;;;46.92;8.05;;;13.20;87.00;;;;;;4976462;28;20598;-79
2021/03/11 12:23:40;;;;;;;46.03;7.85;;;13.30;86.50;;;;;;4976739;28;20047;-77
2021/03/11 12:26:07;;;;;;;53.55;7.07;;;13.20;86.50;;;;;;4975965;28;20082;-78
2021/03/11 12:28:33;;;;;;;52.03;8.05;;;13.10;87.00;;;;;;4990752;28;20081;-78
2021/03/11 12:30:59;;;;;;;62.53;8.38;;;13.20;86.50;;;;;;4975121;28;20046;-80
2021/03/11 12:33:25;;;;;;;68.35;8.60;;;13.20;86.40;;;;;;4978469;28;20066;-79
2021/03/11 12:35:52;;;;;;;61.50;8.73;;;13.30;86.20;;;;;;4992935;28;20404;-79
2021/03/11 12:38:18;;;;;;;53.47;8.48;;;13.30;86.00;;;;;;4986120;28;20042;-79
2021/03/11 12:40:44;;;;;;;58.40;9.60;;;13.40;85.40;;;;;;4990538;28;20039;-79
2021/03/11 12:43:09;;;;;;;53.72;8.27;;;13.30;85.50;;;;;;4974533;28;20499;-84
2021/03/11 12:45:35;;;;;;;52.22;7.07;;;13.40;85.10;;;;;;4976255;28;20042;-81
2021/03/11 12:48:01;;;;;;;54.35;7.38;;;13.40;85.40;;;;;;4979894;28;20470;-83